YUY weather

Rouyn Noranda Airport
Rouyn-Noranda, Quebec, Canada

Public forecast

Using degrees Celsius for public forecast. Weather courtesy of forecast.io.

Current aviation weather report (METAR) for Rouyn Noranda Airport

Retrieved 2020/06/04 14:00 UTC (32 minutes ago):

CYUY 041400Z 28010KT 250V330 15SM FEW024 FEW080 13/07 A2978 RMK CU1AC1 AC TR SLP091 DENSITY ALT 1200FT

Aviation forecast (TAF) for Rouyn Noranda Airport

Retrieved 2020/06/04 12:00 UTC (3 hours ago):

TAF CYUY 041138Z 0412/0424 29007KT P6SM BKN025 TEMPO 0412/0413 BKN009 BKN015 FM041300 28006KT P6SM FEW009 BKN020 TEMPO 0413/0415 BKN025 FM041500 29010KT P6SM BKN040 BECMG 0416/0418 28010G20KT BECMG 0422/0424 VRB03KT RMK NXT FCST BY 041800Z